Ewen, Michigan
Current Conditions -  °F | °C
As of 10:55 PM on Wednesday 22 Oct 2014 (Local Time) from KLNL Reporting Station
Clear Clear  
Wind Chill: 38°   Ceiling: Unl
Heat Index: 42°   Visibility: 10mi
Dew Point: 33°   Wind: 7mph
Humidity: 68%   Direction: 180°S
Pressure: 30.17"   Gusts: NA
Location:  46.53°N, 89.28°W
Report Text: KLNL 230255Z AUTO 18006KT 10SM CLR 06/00 A3017 RMK AO2 T00580004
Loading
Personal Weather Stations






























Interactive Weather Map
Tropical Storm Tracking
New forecast layout! Learn more

10-Day Weather Forecast

Advertisements
Track Severe Weather on mobile